sensor_id;sensor_type;location;lat;lon;timestamp;P1;durP1;ratioP1;P2;durP2;ratioP2
16878;SDS011;8556;52.218;9.884;2022-11-18T00:00:45;29.37;;;17.43;;
16878;SDS011;8556;52.218;9.884;2022-11-18T00:03:12;28.70;;;16.57;;
16878;SDS011;8556;52.218;9.884;2022-11-18T00:05:39;30.47;;;15.40;;
16878;SDS011;8556;52.218;9.884;2022-11-18T00:08:06;30.13;;;17.80;;
16878;SDS011;8556;52.218;9.884;2022-11-18T00:10:35;30.63;;;16.50;;
16878;SDS011;8556;52.218;9.884;2022-11-18T00:13:04;33.27;;;16.50;;
16878;SDS011;8556;52.218;9.884;2022-11-18T00:15:48;32.30;;;17.67;;
16878;SDS011;8556;52.218;9.884;2022-11-18T00:18:14;27.87;;;13.33;;
16878;SDS011;8556;52.218;9.884;2022-11-18T00:20:41;29.77;;;14.90;;
16878;SDS011;8556;52.218;9.884;2022-11-18T00:23:08;33.77;;;19.23;;
16878;SDS011;8556;52.218;9.884;2022-11-18T00:25:35;32.37;;;19.43;;
16878;SDS011;8556;52.218;9.884;2022-11-18T00:28:02;33.83;;;19.90;;
16878;SDS011;8556;52.218;9.884;2022-11-18T00:30:30;34.33;;;17.93;;
16878;SDS011;8556;52.218;9.884;2022-11-18T00:32:57;35.00;;;16.47;;
16878;SDS011;8556;52.218;9.884;2022-11-18T00:35:23;30.67;;;16.57;;
16878;SDS011;8556;52.218;9.884;2022-11-18T00:37:50;33.93;;;15.53;;
16878;SDS011;8556;52.218;9.884;2022-11-18T00:40:17;34.53;;;17.73;;
16878;SDS011;8556;52.218;9.884;2022-11-18T00:42:44;35.40;;;18.93;;
16878;SDS011;8556;52.218;9.884;2022-11-18T00:45:17;34.30;;;17.53;;
16878;SDS011;8556;52.218;9.884;2022-11-18T00:47:44;38.07;;;22.63;;
16878;SDS011;8556;52.218;9.884;2022-11-18T00:50:11;35.40;;;18.57;;
16878;SDS011;8556;52.218;9.884;2022-11-18T00:52:38;34.73;;;18.83;;
16878;SDS011;8556;52.218;9.884;2022-11-18T00:55:05;34.30;;;17.67;;
16878;SDS011;8556;52.218;9.884;2022-11-18T00:57:32;31.03;;;17.63;;
16878;SDS011;8556;52.218;9.884;2022-11-18T00:59:59;32.23;;;18.00;;
16878;SDS011;8556;52.218;9.884;2022-11-18T01:02:27;27.80;;;16.43;;
16878;SDS011;8556;52.218;9.884;2022-11-18T01:04:53;32.10;;;15.30;;
16878;SDS011;8556;52.218;9.884;2022-11-18T01:07:20;27.23;;;14.90;;
16878;SDS011;8556;52.218;9.884;2022-11-18T01:09:47;27.30;;;17.20;;
16878;SDS011;8556;52.218;9.884;2022-11-18T01:12:14;26.83;;;16.57;;
16878;SDS011;8556;52.218;9.884;2022-11-18T01:14:58;21.90;;;13.60;;
16878;SDS011;8556;52.218;9.884;2022-11-18T01:17:28;24.57;;;11.27;;
16878;SDS011;8556;52.218;9.884;2022-11-18T01:19:55;24.93;;;13.13;;
16878;SDS011;8556;52.218;9.884;2022-11-18T01:22:22;26.17;;;15.77;;
16878;SDS011;8556;52.218;9.884;2022-11-18T01:24:48;29.40;;;15.97;;
16878;SDS011;8556;52.218;9.884;2022-11-18T01:27:15;26.73;;;15.80;;
16878;SDS011;8556;52.218;9.884;2022-11-18T01:29:42;24.00;;;12.13;;
16878;SDS011;8556;52.218;9.884;2022-11-18T01:32:09;25.07;;;15.00;;
16878;SDS011;8556;52.218;9.884;2022-11-18T01:34:37;25.90;;;16.10;;
16878;SDS011;8556;52.218;9.884;2022-11-18T01:37:04;27.33;;;14.07;;
16878;SDS011;8556;52.218;9.884;2022-11-18T01:39:30;26.83;;;13.70;;
16878;SDS011;8556;52.218;9.884;2022-11-18T01:41:57;26.10;;;15.63;;
16878;SDS011;8556;52.218;9.884;2022-11-18T01:47:23;24.30;;;15.57;;
16878;SDS011;8556;52.218;9.884;2022-11-18T01:49:54;25.30;;;15.00;;
16878;SDS011;8556;52.218;9.884;2022-11-18T01:52:21;25.27;;;13.70;;
16878;SDS011;8556;52.218;9.884;2022-11-18T01:54:49;24.20;;;14.63;;
16878;SDS011;8556;52.218;9.884;2022-11-18T01:57:22;23.73;;;15.23;;
16878;SDS011;8556;52.218;9.884;2022-11-18T01:59:52;28.60;;;14.47;;
16878;SDS011;8556;52.218;9.884;2022-11-18T02:02:22;25.23;;;13.30;;
16878;SDS011;8556;52.218;9.884;2022-11-18T02:04:50;26.97;;;16.03;;
16878;SDS011;8556;52.218;9.884;2022-11-18T02:07:21;25.40;;;15.37;;
16878;SDS011;8556;52.218;9.884;2022-11-18T02:09:48;23.37;;;11.63;;
16878;SDS011;8556;52.218;9.884;2022-11-18T02:12:16;26.37;;;14.40;;
16878;SDS011;8556;52.218;9.884;2022-11-18T02:14:43;24.73;;;14.37;;
16878;SDS011;8556;52.218;9.884;2022-11-18T02:17:13;26.00;;;16.47;;
16878;SDS011;8556;52.218;9.884;2022-11-18T02:19:54;26.00;;;14.93;;
16878;SDS011;8556;52.218;9.884;2022-11-18T02:22:45;26.13;;;14.90;;
16878;SDS011;8556;52.218;9.884;2022-11-18T02:25:30;25.57;;;16.07;;
16878;SDS011;8556;52.218;9.884;2022-11-18T02:28:13;26.10;;;16.60;;
16878;SDS011;8556;52.218;9.884;2022-11-18T02:30:56;24.33;;;14.60;;
16878;SDS011;8556;52.218;9.884;2022-11-18T02:33:27;27.23;;;13.17;;
16878;SDS011;8556;52.218;9.884;2022-11-18T02:36:01;23.30;;;11.67;;
16878;SDS011;8556;52.218;9.884;2022-11-18T02:38:33;25.13;;;11.93;;
16878;SDS011;8556;52.218;9.884;2022-11-18T02:41:08;21.20;;;10.13;;
16878;SDS011;8556;52.218;9.884;2022-11-18T02:43:38;24.67;;;14.57;;
16878;SDS011;8556;52.218;9.884;2022-11-18T02:46:10;23.80;;;14.83;;
16878;SDS011;8556;52.218;9.884;2022-11-18T02:48:41;25.30;;;14.83;;
16878;SDS011;8556;52.218;9.884;2022-11-18T02:51:12;24.67;;;11.47;;
16878;SDS011;8556;52.218;9.884;2022-11-18T02:53:42;27.80;;;12.40;;
16878;SDS011;8556;52.218;9.884;2022-11-18T02:56:11;24.07;;;14.77;;
16878;SDS011;8556;52.218;9.884;2022-11-18T02:58:40;22.50;;;13.43;;
16878;SDS011;8556;52.218;9.884;2022-11-18T03:01:13;24.33;;;13.80;;
16878;SDS011;8556;52.218;9.884;2022-11-18T03:03:44;25.33;;;14.77;;
16878;SDS011;8556;52.218;9.884;2022-11-18T03:06:18;27.33;;;13.23;;
16878;SDS011;8556;52.218;9.884;2022-11-18T03:08:54;23.97;;;14.27;;
16878;SDS011;8556;52.218;9.884;2022-11-18T03:11:28;24.70;;;14.73;;
16878;SDS011;8556;52.218;9.884;2022-11-18T03:14:04;23.80;;;12.40;;
16878;SDS011;8556;52.218;9.884;2022-11-18T03:16:36;23.60;;;14.40;;
16878;SDS011;8556;52.218;9.884;2022-11-18T03:19:11;22.33;;;11.90;;
16878;SDS011;8556;52.218;9.884;2022-11-18T03:21:46;24.50;;;14.33;;
16878;SDS011;8556;52.218;9.884;2022-11-18T03:24:24;25.23;;;15.23;;
16878;SDS011;8556;52.218;9.884;2022-11-18T03:26:57;23.53;;;13.90;;
16878;SDS011;8556;52.218;9.884;2022-11-18T03:29:27;23.23;;;14.07;;
16878;SDS011;8556;52.218;9.884;2022-11-18T03:32:01;26.43;;;14.80;;
16878;SDS011;8556;52.218;9.884;2022-11-18T03:34:33;23.63;;;10.73;;
16878;SDS011;8556;52.218;9.884;2022-11-18T03:37:04;25.27;;;13.63;;
16878;SDS011;8556;52.218;9.884;2022-11-18T03:39:35;23.27;;;13.57;;
16878;SDS011;8556;52.218;9.884;2022-11-18T03:42:06;26.37;;;14.77;;
16878;SDS011;8556;52.218;9.884;2022-11-18T03:44:37;25.83;;;14.03;;
16878;SDS011;8556;52.218;9.884;2022-11-18T03:47:11;22.90;;;12.67;;
16878;SDS011;8556;52.218;9.884;2022-11-18T03:49:43;19.83;;;9.70;;
16878;SDS011;8556;52.218;9.884;2022-11-18T03:52:13;21.83;;;11.90;;
16878;SDS011;8556;52.218;9.884;2022-11-18T03:54:44;23.27;;;12.43;;
16878;SDS011;8556;52.218;9.884;2022-11-18T03:57:14;22.47;;;12.87;;
16878;SDS011;8556;52.218;9.884;2022-11-18T03:59:46;20.60;;;11.27;;
16878;SDS011;8556;52.218;9.884;2022-11-18T04:02:18;22.10;;;12.03;;
16878;SDS011;8556;52.218;9.884;2022-11-18T04:04:48;20.57;;;11.07;;
16878;SDS011;8556;52.218;9.884;2022-11-18T04:07:19;23.47;;;13.03;;
16878;SDS011;8556;52.218;9.884;2022-11-18T04:09:50;19.73;;;9.37;;
16878;SDS011;8556;52.218;9.884;2022-11-18T04:12:22;20.47;;;11.00;;
16878;SDS011;8556;52.218;9.884;2022-11-18T04:14:52;22.67;;;10.73;;
16878;SDS011;8556;52.218;9.884;2022-11-18T04:17:22;21.97;;;11.97;;
16878;SDS011;8556;52.218;9.884;2022-11-18T04:19:52;23.27;;;12.70;;
16878;SDS011;8556;52.218;9.884;2022-11-18T04:22:18;22.93;;;12.43;;
16878;SDS011;8556;52.218;9.884;2022-11-18T04:24:45;21.53;;;11.83;;
16878;SDS011;8556;52.218;9.884;2022-11-18T04:27:12;22.17;;;12.13;;
16878;SDS011;8556;52.218;9.884;2022-11-18T04:29:39;23.00;;;11.83;;
16878;SDS011;8556;52.218;9.884;2022-11-18T04:32:06;21.50;;;11.40;;
16878;SDS011;8556;52.218;9.884;2022-11-18T04:34:34;23.10;;;12.23;;
16878;SDS011;8556;52.218;9.884;2022-11-18T04:37:00;21.57;;;12.50;;
16878;SDS011;8556;52.218;9.884;2022-11-18T04:39:27;21.43;;;12.87;;
16878;SDS011;8556;52.218;9.884;2022-11-18T04:41:54;22.20;;;12.37;;
16878;SDS011;8556;52.218;9.884;2022-11-18T04:44:21;20.10;;;11.77;;
16878;SDS011;8556;52.218;9.884;2022-11-18T04:46:48;21.83;;;12.10;;
16878;SDS011;8556;52.218;9.884;2022-11-18T04:49:16;21.43;;;12.77;;
16878;SDS011;8556;52.218;9.884;2022-11-18T04:51:44;19.87;;;10.93;;
16878;SDS011;8556;52.218;9.884;2022-11-18T04:54:12;22.30;;;12.27;;
16878;SDS011;8556;52.218;9.884;2022-11-18T04:56:39;22.63;;;12.37;;
16878;SDS011;8556;52.218;9.884;2022-11-18T04:59:07;21.37;;;12.00;;
16878;SDS011;8556;52.218;9.884;2022-11-18T05:01:34;20.77;;;12.30;;
16878;SDS011;8556;52.218;9.884;2022-11-18T05:04:01;23.63;;;11.47;;
16878;SDS011;8556;52.218;9.884;2022-11-18T05:06:29;21.90;;;12.33;;
16878;SDS011;8556;52.218;9.884;2022-11-18T05:08:58;22.07;;;11.87;;
16878;SDS011;8556;52.218;9.884;2022-11-18T05:11:26;22.63;;;12.30;;
16878;SDS011;8556;52.218;9.884;2022-11-18T05:14:11;22.20;;;12.33;;
16878;SDS011;8556;52.218;9.884;2022-11-18T05:16:38;24.30;;;14.27;;
16878;SDS011;8556;52.218;9.884;2022-11-18T05:19:05;23.13;;;13.63;;
16878;SDS011;8556;52.218;9.884;2022-11-18T05:21:32;23.77;;;12.77;;
16878;SDS011;8556;52.218;9.884;2022-11-18T05:24:00;26.40;;;12.13;;
16878;SDS011;8556;52.218;9.884;2022-11-18T05:26:28;25.40;;;13.57;;
16878;SDS011;8556;52.218;9.884;2022-11-18T05:28:55;26.03;;;14.70;;
16878;SDS011;8556;52.218;9.884;2022-11-18T05:31:22;23.93;;;13.70;;
16878;SDS011;8556;52.218;9.884;2022-11-18T05:33:49;24.17;;;12.77;;
16878;SDS011;8556;52.218;9.884;2022-11-18T05:36:16;25.63;;;14.27;;
16878;SDS011;8556;52.218;9.884;2022-11-18T05:38:44;25.87;;;13.67;;
16878;SDS011;8556;52.218;9.884;2022-11-18T05:41:13;23.23;;;11.63;;
16878;SDS011;8556;52.218;9.884;2022-11-18T05:44:01;25.80;;;14.00;;
16878;SDS011;8556;52.218;9.884;2022-11-18T05:46:27;24.20;;;13.27;;
16878;SDS011;8556;52.218;9.884;2022-11-18T05:48:54;25.17;;;13.87;;
16878;SDS011;8556;52.218;9.884;2022-11-18T05:51:21;25.00;;;13.60;;
16878;SDS011;8556;52.218;9.884;2022-11-18T05:53:49;24.60;;;13.73;;
16878;SDS011;8556;52.218;9.884;2022-11-18T05:56:19;22.73;;;12.47;;
16878;SDS011;8556;52.218;9.884;2022-11-18T05:58:49;23.47;;;12.27;;
16878;SDS011;8556;52.218;9.884;2022-11-18T06:01:16;25.43;;;13.50;;
16878;SDS011;8556;52.218;9.884;2022-11-18T06:03:46;25.13;;;13.37;;
16878;SDS011;8556;52.218;9.884;2022-11-18T06:06:14;25.27;;;12.90;;
16878;SDS011;8556;52.218;9.884;2022-11-18T06:08:44;24.30;;;12.10;;
16878;SDS011;8556;52.218;9.884;2022-11-18T06:11:15;23.13;;;12.83;;
16878;SDS011;8556;52.218;9.884;2022-11-18T06:13:47;23.77;;;13.00;;
16878;SDS011;8556;52.218;9.884;2022-11-18T06:16:17;23.47;;;12.77;;
16878;SDS011;8556;52.218;9.884;2022-11-18T06:18:47;23.93;;;12.93;;
16878;SDS011;8556;52.218;9.884;2022-11-18T06:21:15;23.37;;;12.33;;
16878;SDS011;8556;52.218;9.884;2022-11-18T06:23:42;23.00;;;11.47;;
16878;SDS011;8556;52.218;9.884;2022-11-18T06:26:09;21.40;;;10.80;;
16878;SDS011;8556;52.218;9.884;2022-11-18T06:28:39;19.97;;;11.47;;
16878;SDS011;8556;52.218;9.884;2022-11-18T06:31:07;23.00;;;12.17;;
16878;SDS011;8556;52.218;9.884;2022-11-18T06:33:34;25.20;;;13.53;;
16878;SDS011;8556;52.218;9.884;2022-11-18T06:36:01;24.23;;;13.70;;
16878;SDS011;8556;52.218;9.884;2022-11-18T06:38:28;23.00;;;12.13;;
16878;SDS011;8556;52.218;9.884;2022-11-18T06:40:57;22.80;;;12.10;;
16878;SDS011;8556;52.218;9.884;2022-11-18T06:43:25;25.00;;;12.43;;
16878;SDS011;8556;52.218;9.884;2022-11-18T06:46:08;21.57;;;11.13;;
16878;SDS011;8556;52.218;9.884;2022-11-18T06:48:54;22.50;;;11.93;;
16878;SDS011;8556;52.218;9.884;2022-11-18T06:51:21;22.00;;;11.83;;
16878;SDS011;8556;52.218;9.884;2022-11-18T06:53:48;21.10;;;12.13;;
16878;SDS011;8556;52.218;9.884;2022-11-18T06:56:15;20.40;;;11.47;;
16878;SDS011;8556;52.218;9.884;2022-11-18T06:58:43;22.40;;;12.07;;
16878;SDS011;8556;52.218;9.884;2022-11-18T07:01:12;20.50;;;11.13;;
16878;SDS011;8556;52.218;9.884;2022-11-18T07:03:40;19.03;;;9.90;;
16878;SDS011;8556;52.218;9.884;2022-11-18T07:06:09;21.50;;;11.37;;
16878;SDS011;8556;52.218;9.884;2022-11-18T07:08:37;21.07;;;11.40;;
16878;SDS011;8556;52.218;9.884;2022-11-18T07:11:05;22.37;;;11.93;;
16878;SDS011;8556;52.218;9.884;2022-11-18T07:13:33;18.63;;;9.93;;
16878;SDS011;8556;52.218;9.884;2022-11-18T07:16:02;18.37;;;10.27;;
16878;SDS011;8556;52.218;9.884;2022-11-18T07:18:31;22.37;;;11.13;;
16878;SDS011;8556;52.218;9.884;2022-11-18T07:21:02;22.53;;;13.77;;
16878;SDS011;8556;52.218;9.884;2022-11-18T07:23:29;21.77;;;12.23;;
16878;SDS011;8556;52.218;9.884;2022-11-18T07:25:56;22.63;;;11.10;;
16878;SDS011;8556;52.218;9.884;2022-11-18T07:28:23;20.70;;;10.57;;
16878;SDS011;8556;52.218;9.884;2022-11-18T07:30:50;23.30;;;11.27;;
16878;SDS011;8556;52.218;9.884;2022-11-18T07:33:17;23.33;;;11.10;;
16878;SDS011;8556;52.218;9.884;2022-11-18T07:35:45;25.93;;;12.27;;
16878;SDS011;8556;52.218;9.884;2022-11-18T07:38:12;23.20;;;11.80;;
16878;SDS011;8556;52.218;9.884;2022-11-18T07:40:39;22.10;;;10.37;;
16878;SDS011;8556;52.218;9.884;2022-11-18T07:43:06;26.17;;;11.70;;
16878;SDS011;8556;52.218;9.884;2022-11-18T07:45:32;23.37;;;11.80;;
16878;SDS011;8556;52.218;9.884;2022-11-18T07:47:59;24.07;;;11.97;;
16878;SDS011;8556;52.218;9.884;2022-11-18T07:50:26;23.37;;;11.90;;
16878;SDS011;8556;52.218;9.884;2022-11-18T07:52:55;23.23;;;11.57;;
16878;SDS011;8556;52.218;9.884;2022-11-18T07:55:22;24.03;;;12.27;;
16878;SDS011;8556;52.218;9.884;2022-11-18T07:57:49;26.47;;;13.77;;
16878;SDS011;8556;52.218;9.884;2022-11-18T08:00:16;24.33;;;12.40;;
16878;SDS011;8556;52.218;9.884;2022-11-18T08:02:44;25.63;;;13.07;;
16878;SDS011;8556;52.218;9.884;2022-11-18T08:05:15;24.77;;;11.80;;
16878;SDS011;8556;52.218;9.884;2022-11-18T08:07:42;23.73;;;11.27;;
16878;SDS011;8556;52.218;9.884;2022-11-18T08:10:11;26.07;;;13.37;;
16878;SDS011;8556;52.218;9.884;2022-11-18T08:12:38;25.83;;;13.50;;
16878;SDS011;8556;52.218;9.884;2022-11-18T08:15:05;25.03;;;13.33;;
16878;SDS011;8556;52.218;9.884;2022-11-18T08:17:32;26.50;;;13.30;;
16878;SDS011;8556;52.218;9.884;2022-11-18T08:19:59;25.27;;;14.47;;
16878;SDS011;8556;52.218;9.884;2022-11-18T08:22:26;26.23;;;13.43;;
16878;SDS011;8556;52.218;9.884;2022-11-18T08:24:53;27.50;;;14.50;;
16878;SDS011;8556;52.218;9.884;2022-11-18T08:27:21;28.30;;;13.20;;
16878;SDS011;8556;52.218;9.884;2022-11-18T08:29:48;28.57;;;14.60;;
16878;SDS011;8556;52.218;9.884;2022-11-18T08:32:14;30.47;;;15.73;;
16878;SDS011;8556;52.218;9.884;2022-11-18T08:34:41;32.47;;;16.43;;
16878;SDS011;8556;52.218;9.884;2022-11-18T08:37:08;36.30;;;17.50;;
16878;SDS011;8556;52.218;9.884;2022-11-18T08:39:35;34.67;;;18.23;;
16878;SDS011;8556;52.218;9.884;2022-11-18T08:42:02;33.37;;;16.60;;
16878;SDS011;8556;52.218;9.884;2022-11-18T08:44:30;29.97;;;13.70;;
16878;SDS011;8556;52.218;9.884;2022-11-18T08:46:58;30.33;;;14.43;;
16878;SDS011;8556;52.218;9.884;2022-11-18T08:49:25;27.97;;;14.23;;
16878;SDS011;8556;52.218;9.884;2022-11-18T08:51:52;32.40;;;15.13;;
16878;SDS011;8556;52.218;9.884;2022-11-18T08:54:19;33.27;;;15.97;;
16878;SDS011;8556;52.218;9.884;2022-11-18T08:56:46;35.10;;;17.33;;
16878;SDS011;8556;52.218;9.884;2022-11-18T08:59:14;34.67;;;16.63;;
16878;SDS011;8556;52.218;9.884;2022-11-18T09:01:42;31.97;;;16.33;;
16878;SDS011;8556;52.218;9.884;2022-11-18T09:04:09;33.43;;;16.00;;
16878;SDS011;8556;52.218;9.884;2022-11-18T09:06:36;32.97;;;15.70;;
16878;SDS011;8556;52.218;9.884;2022-11-18T09:09:04;37.20;;;18.10;;
16878;SDS011;8556;52.218;9.884;2022-11-18T09:11:31;34.33;;;17.90;;
16878;SDS011;8556;52.218;9.884;2022-11-18T09:13:58;35.80;;;19.33;;
16878;SDS011;8556;52.218;9.884;2022-11-18T09:16:26;34.33;;;16.60;;
16878;SDS011;8556;52.218;9.884;2022-11-18T09:18:56;31.13;;;16.67;;
16878;SDS011;8556;52.218;9.884;2022-11-18T09:21:23;36.20;;;17.77;;
16878;SDS011;8556;52.218;9.884;2022-11-18T09:23:50;33.37;;;16.53;;
16878;SDS011;8556;52.218;9.884;2022-11-18T09:26:18;34.67;;;17.67;;
16878;SDS011;8556;52.218;9.884;2022-11-18T09:28:46;32.50;;;16.73;;
16878;SDS011;8556;52.218;9.884;2022-11-18T09:31:14;33.93;;;16.30;;
16878;SDS011;8556;52.218;9.884;2022-11-18T09:33:42;32.83;;;17.00;;
16878;SDS011;8556;52.218;9.884;2022-11-18T09:36:11;37.10;;;20.20;;
16878;SDS011;8556;52.218;9.884;2022-11-18T09:38:39;34.00;;;19.63;;
16878;SDS011;8556;52.218;9.884;2022-11-18T09:41:11;37.40;;;19.60;;
16878;SDS011;8556;52.218;9.884;2022-11-18T09:43:51;35.53;;;18.07;;
16878;SDS011;8556;52.218;9.884;2022-11-18T09:46:29;38.07;;;19.03;;
16878;SDS011;8556;52.218;9.884;2022-11-18T09:49:07;34.97;;;18.63;;
16878;SDS011;8556;52.218;9.884;2022-11-18T09:51:41;32.40;;;16.30;;
16878;SDS011;8556;52.218;9.884;2022-11-18T09:54:10;30.47;;;16.70;;
16878;SDS011;8556;52.218;9.884;2022-11-18T09:56:44;34.57;;;17.37;;
16878;SDS011;8556;52.218;9.884;2022-11-18T09:59:12;29.60;;;15.57;;
16878;SDS011;8556;52.218;9.884;2022-11-18T10:01:40;31.60;;;18.07;;
16878;SDS011;8556;52.218;9.884;2022-11-18T10:04:12;32.87;;;18.77;;
16878;SDS011;8556;52.218;9.884;2022-11-18T10:06:42;30.57;;;16.63;;
16878;SDS011;8556;52.218;9.884;2022-11-18T10:09:12;30.80;;;17.23;;
16878;SDS011;8556;52.218;9.884;2022-11-18T10:11:48;29.70;;;16.70;;
16878;SDS011;8556;52.218;9.884;2022-11-18T10:14:40;32.87;;;17.53;;
16878;SDS011;8556;52.218;9.884;2022-11-18T10:17:18;33.37;;;16.90;;
16878;SDS011;8556;52.218;9.884;2022-11-18T10:20:02;29.67;;;17.07;;
16878;SDS011;8556;52.218;9.884;2022-11-18T10:22:43;29.87;;;18.30;;
16878;SDS011;8556;52.218;9.884;2022-11-18T10:25:16;32.10;;;18.30;;
16878;SDS011;8556;52.218;9.884;2022-11-18T10:27:44;32.10;;;18.10;;
16878;SDS011;8556;52.218;9.884;2022-11-18T10:30:13;33.77;;;18.47;;
16878;SDS011;8556;52.218;9.884;2022-11-18T10:32:54;31.23;;;17.50;;
16878;SDS011;8556;52.218;9.884;2022-11-18T10:35:25;30.63;;;16.57;;
16878;SDS011;8556;52.218;9.884;2022-11-18T10:38:02;33.77;;;18.03;;
16878;SDS011;8556;52.218;9.884;2022-11-18T10:40:30;31.00;;;17.70;;
16878;SDS011;8556;52.218;9.884;2022-11-18T10:42:59;31.30;;;17.33;;
16878;SDS011;8556;52.218;9.884;2022-11-18T10:45:27;30.87;;;16.57;;
16878;SDS011;8556;52.218;9.884;2022-11-18T10:47:59;30.07;;;17.73;;
16878;SDS011;8556;52.218;9.884;2022-11-18T10:50:29;31.27;;;17.83;;
16878;SDS011;8556;52.218;9.884;2022-11-18T10:52:58;27.70;;;15.50;;
16878;SDS011;8556;52.218;9.884;2022-11-18T10:55:26;30.10;;;17.37;;
16878;SDS011;8556;52.218;9.884;2022-11-18T10:57:54;33.43;;;18.40;;
16878;SDS011;8556;52.218;9.884;2022-11-18T11:00:35;31.37;;;17.73;;
16878;SDS011;8556;52.218;9.884;2022-11-18T11:08:56;29.47;;;16.93;;
16878;SDS011;8556;52.218;9.884;2022-11-18T11:11:27;32.80;;;18.13;;
16878;SDS011;8556;52.218;9.884;2022-11-18T11:13:57;32.67;;;18.83;;
16878;SDS011;8556;52.218;9.884;2022-11-18T11:16:40;29.80;;;17.30;;
16878;SDS011;8556;52.218;9.884;2022-11-18T11:19:15;31.90;;;18.47;;
16878;SDS011;8556;52.218;9.884;2022-11-18T11:21:44;33.97;;;19.00;;
16878;SDS011;8556;52.218;9.884;2022-11-18T11:24:11;31.67;;;17.70;;
16878;SDS011;8556;52.218;9.884;2022-11-18T11:26:42;28.93;;;17.20;;
16878;SDS011;8556;52.218;9.884;2022-11-18T11:29:15;33.23;;;19.77;;
16878;SDS011;8556;52.218;9.884;2022-11-18T11:31:52;31.70;;;17.67;;
16878;SDS011;8556;52.218;9.884;2022-11-18T11:34:27;36.23;;;21.30;;
16878;SDS011;8556;52.218;9.884;2022-11-18T11:37:03;37.43;;;21.90;;
16878;SDS011;8556;52.218;9.884;2022-11-18T11:39:45;34.63;;;21.17;;
16878;SDS011;8556;52.218;9.884;2022-11-18T11:42:37;38.27;;;22.27;;
16878;SDS011;8556;52.218;9.884;2022-11-18T11:45:19;37.10;;;20.57;;
16878;SDS011;8556;52.218;9.884;2022-11-18T11:48:04;36.80;;;22.10;;
16878;SDS011;8556;52.218;9.884;2022-11-18T11:50:45;38.30;;;20.67;;
16878;SDS011;8556;52.218;9.884;2022-11-18T11:53:23;37.53;;;20.37;;
16878;SDS011;8556;52.218;9.884;2022-11-18T11:56:11;37.93;;;21.30;;
16878;SDS011;8556;52.218;9.884;2022-11-18T11:59:05;36.93;;;20.93;;
16878;SDS011;8556;52.218;9.884;2022-11-18T12:01:41;36.93;;;21.27;;
16878;SDS011;8556;52.218;9.884;2022-11-18T12:04:23;37.07;;;20.17;;
16878;SDS011;8556;52.218;9.884;2022-11-18T12:07:00;36.27;;;20.47;;
16878;SDS011;8556;52.218;9.884;2022-11-18T12:09:31;36.23;;;19.67;;
16878;SDS011;8556;52.218;9.884;2022-11-18T12:12:11;34.80;;;20.10;;
16878;SDS011;8556;52.218;9.884;2022-11-18T12:15:03;30.93;;;17.93;;
16878;SDS011;8556;52.218;9.884;2022-11-18T12:17:42;38.00;;;21.70;;
16878;SDS011;8556;52.218;9.884;2022-11-18T12:20:35;33.67;;;18.50;;
16878;SDS011;8556;52.218;9.884;2022-11-18T12:23:12;35.30;;;21.10;;
16878;SDS011;8556;52.218;9.884;2022-11-18T12:25:50;37.03;;;20.37;;
16878;SDS011;8556;52.218;9.884;2022-11-18T12:28:22;38.30;;;22.77;;
16878;SDS011;8556;52.218;9.884;2022-11-18T12:34:17;35.23;;;19.17;;
16878;SDS011;8556;52.218;9.884;2022-11-18T12:36:56;39.27;;;21.17;;
16878;SDS011;8556;52.218;9.884;2022-11-18T12:40:04;39.13;;;21.77;;
16878;SDS011;8556;52.218;9.884;2022-11-18T12:42:40;37.70;;;21.53;;
16878;SDS011;8556;52.218;9.884;2022-11-18T12:45:36;39.13;;;22.57;;
16878;SDS011;8556;52.218;9.884;2022-11-18T12:48:37;39.27;;;21.93;;
16878;SDS011;8556;52.218;9.884;2022-11-18T12:54:27;37.10;;;22.00;;
16878;SDS011;8556;52.218;9.884;2022-11-18T12:56:57;36.47;;;20.77;;
16878;SDS011;8556;52.218;9.884;2022-11-18T12:59:26;34.90;;;19.87;;
16878;SDS011;8556;52.218;9.884;2022-11-18T13:05:08;33.13;;;18.83;;
16878;SDS011;8556;52.218;9.884;2022-11-18T13:07:40;32.73;;;18.33;;
16878;SDS011;8556;52.218;9.884;2022-11-18T13:10:28;35.13;;;19.77;;
16878;SDS011;8556;52.218;9.884;2022-11-18T13:12:58;33.80;;;18.47;;
16878;SDS011;8556;52.218;9.884;2022-11-18T13:15:25;34.43;;;18.97;;
16878;SDS011;8556;52.218;9.884;2022-11-18T13:18:12;33.73;;;18.27;;
16878;SDS011;8556;52.218;9.884;2022-11-18T13:20:42;37.03;;;20.93;;
16878;SDS011;8556;52.218;9.884;2022-11-18T13:23:23;35.60;;;19.47;;
16878;SDS011;8556;52.218;9.884;2022-11-18T13:26:11;35.40;;;19.93;;
16878;SDS011;8556;52.218;9.884;2022-11-18T13:28:43;31.70;;;16.50;;
16878;SDS011;8556;52.218;9.884;2022-11-18T13:31:26;37.17;;;19.43;;
16878;SDS011;8556;52.218;9.884;2022-11-18T13:33:59;34.87;;;18.20;;
16878;SDS011;8556;52.218;9.884;2022-11-18T13:36:29;34.80;;;19.10;;
16878;SDS011;8556;52.218;9.884;2022-11-18T13:38:57;33.93;;;18.60;;
16878;SDS011;8556;52.218;9.884;2022-11-18T13:41:27;32.80;;;18.13;;
16878;SDS011;8556;52.218;9.884;2022-11-18T13:44:08;33.37;;;17.00;;
16878;SDS011;8556;52.218;9.884;2022-11-18T13:46:37;31.00;;;16.07;;
16878;SDS011;8556;52.218;9.884;2022-11-18T13:49:09;33.67;;;17.13;;
16878;SDS011;8556;52.218;9.884;2022-11-18T13:51:40;30.83;;;16.60;;
16878;SDS011;8556;52.218;9.884;2022-11-18T13:54:08;31.37;;;16.00;;
16878;SDS011;8556;52.218;9.884;2022-11-18T13:56:36;33.27;;;17.77;;
16878;SDS011;8556;52.218;9.884;2022-11-18T13:59:04;32.50;;;16.73;;
16878;SDS011;8556;52.218;9.884;2022-11-18T14:01:32;30.20;;;16.67;;
16878;SDS011;8556;52.218;9.884;2022-11-18T14:04:00;30.87;;;16.13;;
16878;SDS011;8556;52.218;9.884;2022-11-18T14:06:29;32.97;;;16.50;;
16878;SDS011;8556;52.218;9.884;2022-11-18T14:09:15;30.20;;;16.97;;
16878;SDS011;8556;52.218;9.884;2022-11-18T14:11:56;29.90;;;15.60;;
16878;SDS011;8556;52.218;9.884;2022-11-18T14:14:29;30.90;;;17.33;;
16878;SDS011;8556;52.218;9.884;2022-11-18T14:17:11;30.70;;;16.23;;
16878;SDS011;8556;52.218;9.884;2022-11-18T14:19:42;32.03;;;18.60;;
16878;SDS011;8556;52.218;9.884;2022-11-18T14:22:11;29.60;;;17.90;;
16878;SDS011;8556;52.218;9.884;2022-11-18T14:24:41;30.10;;;17.23;;
16878;SDS011;8556;52.218;9.884;2022-11-18T14:27:28;32.10;;;19.57;;
16878;SDS011;8556;52.218;9.884;2022-11-18T14:33:17;34.47;;;21.17;;
16878;SDS011;8556;52.218;9.884;2022-11-18T14:35:49;32.80;;;19.03;;
16878;SDS011;8556;52.218;9.884;2022-11-18T14:38:20;34.40;;;20.63;;
16878;SDS011;8556;52.218;9.884;2022-11-18T14:40:54;34.43;;;20.23;;
16878;SDS011;8556;52.218;9.884;2022-11-18T14:43:21;35.57;;;20.70;;
16878;SDS011;8556;52.218;9.884;2022-11-18T14:45:49;39.97;;;23.17;;
16878;SDS011;8556;52.218;9.884;2022-11-18T14:48:17;33.67;;;18.43;;
16878;SDS011;8556;52.218;9.884;2022-11-18T14:50:46;35.80;;;21.47;;
16878;SDS011;8556;52.218;9.884;2022-11-18T14:53:13;36.47;;;22.80;;
16878;SDS011;8556;52.218;9.884;2022-11-18T14:55:40;36.33;;;20.13;;
16878;SDS011;8556;52.218;9.884;2022-11-18T14:58:12;37.27;;;22.20;;
16878;SDS011;8556;52.218;9.884;2022-11-18T15:00:40;32.53;;;18.97;;
16878;SDS011;8556;52.218;9.884;2022-11-18T15:03:07;38.77;;;23.80;;
16878;SDS011;8556;52.218;9.884;2022-11-18T15:05:34;35.27;;;18.63;;
16878;SDS011;8556;52.218;9.884;2022-11-18T15:08:01;40.37;;;22.63;;
16878;SDS011;8556;52.218;9.884;2022-11-18T15:10:28;36.63;;;19.87;;
16878;SDS011;8556;52.218;9.884;2022-11-18T15:12:55;39.47;;;24.50;;
16878;SDS011;8556;52.218;9.884;2022-11-18T15:15:24;38.27;;;22.43;;
16878;SDS011;8556;52.218;9.884;2022-11-18T15:17:50;40.70;;;24.60;;
16878;SDS011;8556;52.218;9.884;2022-11-18T15:20:18;39.83;;;24.30;;